createdAt,value
2019-03-27T00:00:07.400Z,66.13
2019-03-27T00:02:37.342Z,66.21
2019-03-27T00:05:06.038Z,67.05
2019-03-27T00:07:34.269Z,67.40
2019-03-27T00:10:03.362Z,68.01
2019-03-27T00:12:31.465Z,66.87
2019-03-27T00:15:11.920Z,68.04
2019-03-27T00:17:29.971Z,67.61
2019-03-27T00:19:58.597Z,67.39
2019-03-27T00:22:27.118Z,67.29
2019-03-27T00:24:55.390Z,67.08
2019-03-27T00:27:23.660Z,68.17
2019-03-27T00:29:51.937Z,68.47
2019-03-27T00:32:20.194Z,68.51
2019-03-27T00:34:48.416Z,68.89
2019-03-27T00:37:16.649Z,69.40
2019-03-27T00:39:45.284Z,68.60
2019-03-27T00:42:14.090Z,69.01
2019-03-27T00:44:42.865Z,70.01
2019-03-27T00:47:11.413Z,69.41
2019-03-27T00:49:39.698Z,69.41
2019-03-27T00:52:07.943Z,69.85
2019-03-27T00:54:36.092Z,69.97
2019-03-27T00:57:04.288Z,70.82
2019-03-27T00:59:32.440Z,70.95
2019-03-27T01:02:00.616Z,70.84
2019-03-27T01:04:28.702Z,71.27
2019-03-27T01:06:57.060Z,70.60
2019-03-27T01:09:25.580Z,70.05
2019-03-27T01:11:54.233Z,70.05
2019-03-27T01:14:22.900Z,70.20
2019-03-27T01:16:51.599Z,69.83
2019-03-27T01:19:19.890Z,70.59
2019-03-27T01:21:48.472Z,70.70
2019-03-27T01:24:16.921Z,70.50
2019-03-27T01:26:45.594Z,70.53
2019-03-27T01:29:13.982Z,71.30
2019-03-27T01:31:42.587Z,71.91
2019-03-27T01:34:10.826Z,71.24
2019-03-27T01:36:39.151Z,71.62
2019-03-27T01:39:07.830Z,70.50
2019-03-27T01:41:36.421Z,70.59
2019-03-27T01:44:04.723Z,70.63
2019-03-27T01:46:33.161Z,71.00
2019-03-27T01:49:01.628Z,70.72
2019-03-27T01:51:30.023Z,70.71
2019-03-27T01:53:59.385Z,71.32
2019-03-27T01:56:27.825Z,71.21
2019-03-27T01:58:56.266Z,70.99
2019-03-27T02:01:24.582Z,71.14
2019-03-27T02:03:52.832Z,71.56
2019-03-27T02:06:21.204Z,70.85
2019-03-27T02:08:49.867Z,71.94
2019-03-27T02:11:18.356Z,71.78
2019-03-27T02:13:46.965Z,72.09
2019-03-27T02:16:15.250Z,72.26
2019-03-27T02:18:43.554Z,72.09
2019-03-27T02:21:12.429Z,71.43
2019-03-27T02:23:40.792Z,72.03
2019-03-27T02:26:09.308Z,71.46
2019-03-27T02:28:38.054Z,71.77
2019-03-27T02:31:06.695Z,71.63
2019-03-27T02:33:35.426Z,72.00
2019-03-27T02:36:04.114Z,72.13
2019-03-27T02:38:32.389Z,72.58
2019-03-27T02:41:00.841Z,72.26
2019-03-27T02:43:29.199Z,71.69
2019-03-27T02:45:57.678Z,72.21
2019-03-27T02:48:26.355Z,71.44
2019-03-27T02:50:54.645Z,71.04
2019-03-27T02:53:22.843Z,71.00
2019-03-27T02:55:50.908Z,71.34
2019-03-27T02:58:19.219Z,72.32
2019-03-27T03:00:47.327Z,71.81
2019-03-27T03:03:15.534Z,72.14
2019-03-27T03:05:43.651Z,72.18
2019-03-27T03:08:12.142Z,72.36
2019-03-27T03:10:45.041Z,71.57
2019-03-27T03:13:10.904Z,71.67
2019-03-27T03:15:39.174Z,71.55
2019-03-27T03:18:07.574Z,71.41
2019-03-27T03:20:35.838Z,71.87
2019-03-27T03:23:04.454Z,72.64
2019-03-27T03:25:33.227Z,72.40
2019-03-27T03:28:01.909Z,72.75
2019-03-27T03:30:30.622Z,72.35
2019-03-27T03:32:59.123Z,72.88
2019-03-27T03:35:27.596Z,73.02
2019-03-27T03:37:56.041Z,73.06
2019-03-27T03:40:24.653Z,71.94
2019-03-27T03:42:53.278Z,72.22
2019-03-27T03:45:21.740Z,72.08
2019-03-27T03:47:50.451Z,72.81
2019-03-27T03:50:36.690Z,72.97
2019-03-27T03:53:06.930Z,72.71
2019-03-27T03:55:37.339Z,72.81
2019-03-27T03:58:07.706Z,72.70
2019-03-27T04:00:36.558Z,73.12
2019-03-27T04:03:04.952Z,72.89
2019-03-27T04:05:33.366Z,72.75
2019-03-27T04:08:01.892Z,72.91
2019-03-27T04:10:30.378Z,73.26
2019-03-27T04:12:58.768Z,73.25
2019-03-27T04:15:27.234Z,73.16
2019-03-27T04:17:55.770Z,73.06
2019-03-27T04:20:23.883Z,73.19
2019-03-27T04:22:52.148Z,74.00
2019-03-27T04:25:20.534Z,74.17
2019-03-27T04:27:48.713Z,73.02
2019-03-27T04:30:17.162Z,73.52
2019-03-27T04:32:45.603Z,73.03
2019-03-27T04:35:14.142Z,74.06
2019-03-27T04:37:42.650Z,73.87
2019-03-27T04:40:11.032Z,73.96
2019-03-27T04:42:39.310Z,73.51
2019-03-27T04:45:07.988Z,73.64
2019-03-27T04:47:36.347Z,73.63
2019-03-27T04:50:05.109Z,74.31
2019-03-27T04:52:33.699Z,73.58
2019-03-27T04:55:02.032Z,73.47
2019-03-27T04:57:30.350Z,74.07
2019-03-27T04:59:58.507Z,74.15
2019-03-27T05:02:26.805Z,74.34
2019-03-27T05:04:55.321Z,74.25
2019-03-27T05:07:23.565Z,74.53
2019-03-27T05:09:51.646Z,74.04
2019-03-27T05:12:19.781Z,74.79
2019-03-27T05:14:47.870Z,74.97
2019-03-27T05:17:16.230Z,74.28
2019-03-27T05:19:44.345Z,73.56
2019-03-27T05:22:12.824Z,73.14
2019-03-27T05:24:41.123Z,73.21
2019-03-27T05:27:10.956Z,73.05
2019-03-27T05:29:39.349Z,72.48
2019-03-27T05:32:08.860Z,72.17
2019-03-27T05:34:37.520Z,73.44
2019-03-27T05:37:06.221Z,72.70
2019-03-27T05:39:34.754Z,72.44
2019-03-27T05:42:03.306Z,72.28
2019-03-27T05:44:31.645Z,71.86
2019-03-27T05:47:00.212Z,70.84
2019-03-27T05:49:28.527Z,70.51
2019-03-27T05:51:56.996Z,70.80
2019-03-27T05:54:25.150Z,71.71
2019-03-27T05:56:53.403Z,71.83
2019-03-27T05:59:21.914Z,71.86
2019-03-27T06:01:50.720Z,71.10
2019-03-27T06:04:19.191Z,70.52
2019-03-27T06:06:47.629Z,70.50
2019-03-27T06:09:16.137Z,70.58
2019-03-27T06:11:44.771Z,70.12
2019-03-27T06:14:13.528Z,69.96
2019-03-27T06:16:41.771Z,70.60
2019-03-27T06:19:09.850Z,70.27
2019-03-27T06:21:38.229Z,70.78
2019-03-27T06:24:06.360Z,70.71
2019-03-27T06:26:34.567Z,69.76
2019-03-27T06:29:02.757Z,69.04
2019-03-27T06:31:31.004Z,69.94
2019-03-27T06:33:59.110Z,69.88
2019-03-27T06:36:27.286Z,69.18
2019-03-27T06:38:55.814Z,68.55
2019-03-27T06:41:24.369Z,68.94
2019-03-27T06:43:52.993Z,67.79
2019-03-27T06:46:21.349Z,67.34
2019-03-27T06:48:49.644Z,67.09
2019-03-27T06:51:18.094Z,67.61
2019-03-27T06:53:46.571Z,68.17
2019-03-27T06:56:15.255Z,66.62
2019-03-27T06:58:53.845Z,66.34
2019-03-27T07:01:14.416Z,67.02
2019-03-27T07:03:43.980Z,67.14
2019-03-27T07:06:12.571Z,66.10
2019-03-27T07:08:40.841Z,65.74
2019-03-27T07:11:09.371Z,64.97
2019-03-27T07:13:37.601Z,65.78
2019-03-27T07:16:05.950Z,64.44
2019-03-27T07:18:40.058Z,65.42
2019-03-27T07:21:04.681Z,66.81
2019-03-27T07:23:32.959Z,65.88
2019-03-27T07:26:01.179Z,64.30
2019-03-27T07:28:29.542Z,65.12
2019-03-27T07:30:57.771Z,64.67
2019-03-27T07:33:25.929Z,64.32
2019-03-27T07:35:54.159Z,64.17
2019-03-27T07:38:22.226Z,63.06
2019-03-27T07:40:50.494Z,62.37
2019-03-27T07:43:18.723Z,61.35
2019-03-27T07:45:46.925Z,60.59
2019-03-27T07:48:15.049Z,61.01
2019-03-27T07:50:43.178Z,61.91
2019-03-27T07:53:11.321Z,60.76
2019-03-27T07:55:39.491Z,59.91
2019-03-27T07:58:07.597Z,58.71
2019-03-27T08:00:35.746Z,58.21
2019-03-27T08:03:03.848Z,58.47
2019-03-27T08:05:31.986Z,57.39
2019-03-27T08:08:00.182Z,58.87
2019-03-27T08:10:28.335Z,56.02
2019-03-27T08:12:56.425Z,55.58
2019-03-27T08:15:24.529Z,55.54
2019-03-27T08:17:52.679Z,55.71
2019-03-27T08:20:20.768Z,54.31
2019-03-27T08:22:48.973Z,55.29
2019-03-27T08:25:17.391Z,54.45
2019-03-27T08:27:45.650Z,53.03
2019-03-27T08:30:14.795Z,53.01
2019-03-27T08:32:43.090Z,52.50
2019-03-27T08:35:11.481Z,53.17
2019-03-27T08:37:39.796Z,53.16
2019-03-27T08:40:08.483Z,51.82
2019-03-27T08:42:36.702Z,50.29
2019-03-27T08:45:05.986Z,50.78
2019-03-27T08:47:34.302Z,51.19
2019-03-27T08:50:03.097Z,49.99
2019-03-27T08:52:31.336Z,49.69
2019-03-27T08:54:59.571Z,47.86
2019-03-27T08:57:27.743Z,46.76
2019-03-27T08:59:55.905Z,46.92
2019-03-27T09:02:24.017Z,46.53
2019-03-27T09:04:52.159Z,45.20
2019-03-27T09:07:20.262Z,44.34
2019-03-27T09:09:48.412Z,43.45
2019-03-27T09:12:16.629Z,43.06
2019-03-27T09:14:44.761Z,43.51
2019-03-27T09:17:12.838Z,43.06
2019-03-27T09:19:41.072Z,42.53
2019-03-27T09:22:09.218Z,43.08
2019-03-27T09:24:37.434Z,44.32
2019-03-27T09:27:05.802Z,45.40
2019-03-27T09:29:33.999Z,44.96
2019-03-27T09:32:02.073Z,44.81
2019-03-27T09:34:30.232Z,46.61
2019-03-27T09:36:58.328Z,46.56
2019-03-27T09:39:26.587Z,47.75
2019-03-27T09:41:54.720Z,48.37
2019-03-27T09:44:22.913Z,49.34
2019-03-27T09:46:51.052Z,48.23
2019-03-27T09:49:19.277Z,46.90
2019-03-27T09:51:47.400Z,46.98
2019-03-27T09:54:15.545Z,49.60
2019-03-27T09:56:43.696Z,48.73
2019-03-27T09:59:11.845Z,48.92
2019-03-27T10:01:39.999Z,48.59
2019-03-27T10:04:08.244Z,49.43
2019-03-27T10:06:36.393Z,48.71
2019-03-27T10:09:06.032Z,49.61
2019-03-27T10:11:34.755Z,48.60
2019-03-27T10:14:02.925Z,49.91
2019-03-27T10:16:31.081Z,50.33
2019-03-27T10:18:59.301Z,49.25
2019-03-27T10:21:27.565Z,49.49
2019-03-27T10:23:55.769Z,49.99
2019-03-27T10:26:23.854Z,49.73
2019-03-27T10:28:52.023Z,51.41
2019-03-27T10:31:20.172Z,50.62
2019-03-27T10:33:48.735Z,50.79
2019-03-27T10:36:16.896Z,51.25
2019-03-27T10:38:46.763Z,52.60
2019-03-27T10:41:14.827Z,52.13
2019-03-27T10:43:43.045Z,51.89
2019-03-27T10:46:11.218Z,52.34
2019-03-27T10:48:52.033Z,52.10
2019-03-27T10:51:09.443Z,52.31
2019-03-27T10:53:37.719Z,52.17
2019-03-27T10:56:05.814Z,52.53
2019-03-27T10:58:34.012Z,52.68
2019-03-27T11:01:02.144Z,51.95
2019-03-27T11:03:31.347Z,51.47
2019-03-27T11:05:59.502Z,51.98
2019-03-27T11:08:27.646Z,51.95
2019-03-27T11:10:55.731Z,53.00
2019-03-27T11:13:23.975Z,52.60
2019-03-27T11:15:53.367Z,53.87
2019-03-27T11:18:21.531Z,52.54
2019-03-27T11:20:49.709Z,52.63
2019-03-27T11:23:17.859Z,51.68
2019-03-27T11:25:45.971Z,51.35
2019-03-27T11:28:14.208Z,50.35
2019-03-27T11:30:42.733Z,50.37
2019-03-27T11:33:10.968Z,49.95
2019-03-27T11:35:40.154Z,50.68
2019-03-27T11:38:08.484Z,51.25
2019-03-27T11:40:36.595Z,51.59
2019-03-27T11:43:05.265Z,50.82
2019-03-27T11:45:34.485Z,51.64
2019-03-27T11:48:02.769Z,51.59
2019-03-27T11:50:43.690Z,52.35
2019-03-27T11:53:02.219Z,51.93
2019-03-27T11:55:30.354Z,52.23
2019-03-27T11:57:58.592Z,51.84
2019-03-27T12:00:27.050Z,52.13
2019-03-27T12:02:55.264Z,52.86
2019-03-27T12:05:23.405Z,52.88
2019-03-27T12:07:51.554Z,52.95
2019-03-27T12:10:19.937Z,52.49
2019-03-27T12:12:48.489Z,53.81
2019-03-27T12:15:28.040Z,54.56
2019-03-27T12:17:56.145Z,54.78
2019-03-27T12:20:24.270Z,54.88
2019-03-27T12:22:57.575Z,56.68
2019-03-27T12:25:22.499Z,57.06
2019-03-27T12:27:50.859Z,57.35
2019-03-27T12:30:19.520Z,58.61
2019-03-27T12:32:47.710Z,58.56
2019-03-27T12:35:15.923Z,59.52
2019-03-27T12:37:44.102Z,59.56
2019-03-27T12:40:12.315Z,60.34
2019-03-27T12:42:40.681Z,59.80
2019-03-27T12:45:10.011Z,59.54
2019-03-27T12:47:38.174Z,58.47
2019-03-27T12:50:08.611Z,58.59
2019-03-27T12:52:38.219Z,58.20
2019-03-27T12:55:06.937Z,58.23
2019-03-27T12:57:35.213Z,58.24
2019-03-27T13:00:03.800Z,57.49
2019-03-27T13:02:32.030Z,56.51
2019-03-27T13:05:00.374Z,56.57
2019-03-27T13:07:28.657Z,55.97
2019-03-27T13:09:56.814Z,55.44
2019-03-27T13:12:25.061Z,55.40
2019-03-27T13:14:53.480Z,53.60
2019-03-27T13:17:21.976Z,53.57
2019-03-27T13:19:50.315Z,52.45
2019-03-27T13:22:20.118Z,51.85
2019-03-27T13:24:48.692Z,52.79
2019-03-27T13:27:17.021Z,53.55
2019-03-27T13:29:45.629Z,54.64
2019-03-27T13:32:13.746Z,54.92
2019-03-27T13:34:41.948Z,55.12
2019-03-27T13:37:10.060Z,55.64
2019-03-27T13:39:38.310Z,56.16
2019-03-27T13:42:06.748Z,56.03
2019-03-27T13:44:37.374Z,55.96
2019-03-27T13:47:05.086Z,56.78
2019-03-27T13:49:33.468Z,56.59
2019-03-27T13:52:01.599Z,56.83
2019-03-27T13:54:29.784Z,57.23
2019-03-27T13:56:57.899Z,58.01
2019-03-27T13:59:26.031Z,58.62
2019-03-27T14:01:54.133Z,59.95
2019-03-27T14:04:22.394Z,59.08
2019-03-27T14:06:50.506Z,59.21
2019-03-27T14:09:18.655Z,59.22
2019-03-27T14:11:46.859Z,58.89
2019-03-27T14:14:15.096Z,58.92
2019-03-27T14:16:43.196Z,58.74
2019-03-27T14:19:11.475Z,58.54
2019-03-27T14:21:53.591Z,58.29
2019-03-27T14:24:09.716Z,59.14
2019-03-27T14:26:45.132Z,59.25
2019-03-27T14:29:07.987Z,59.32
2019-03-27T14:31:36.181Z,58.80
2019-03-27T14:34:04.357Z,59.44
2019-03-27T14:36:32.462Z,59.71
2019-03-27T14:39:00.660Z,59.60
2019-03-27T14:41:29.020Z,58.80
2019-03-27T14:43:57.232Z,58.80
2019-03-27T14:46:25.356Z,58.25
2019-03-27T14:48:53.560Z,57.90
2019-03-27T14:51:21.719Z,56.14
2019-03-27T14:53:50.907Z,54.73
2019-03-27T14:56:19.142Z,54.26
2019-03-27T14:58:47.601Z,55.39
2019-03-27T15:01:15.995Z,55.32
2019-03-27T15:03:44.161Z,55.33
2019-03-27T15:06:12.358Z,55.06
2019-03-27T15:08:40.540Z,55.95
2019-03-27T15:11:21.626Z,57.11
2019-03-27T15:13:49.907Z,57.65
2019-03-27T15:16:18.214Z,58.24
2019-03-27T15:18:46.623Z,58.29
2019-03-27T15:21:14.864Z,58.31
2019-03-27T15:23:43.027Z,58.62
2019-03-27T15:26:11.407Z,58.58
2019-03-27T15:28:39.539Z,58.23
2019-03-27T15:31:19.755Z,58.41
2019-03-27T15:33:37.767Z,58.92
2019-03-27T15:36:05.949Z,59.09
2019-03-27T15:38:34.091Z,59.31
2019-03-27T15:41:02.265Z,58.62
2019-03-27T15:43:30.459Z,58.58
2019-03-27T15:45:58.620Z,58.26
2019-03-27T15:48:26.724Z,58.34
2019-03-27T15:50:58.928Z,58.39
2019-03-27T15:53:26.066Z,58.86
2019-03-27T15:55:54.292Z,58.83
2019-03-27T15:58:22.507Z,58.95
2019-03-27T16:00:50.745Z,58.66
2019-03-27T16:03:19.164Z,58.79
2019-03-27T16:05:47.388Z,59.11
2019-03-27T16:08:15.706Z,59.32
2019-03-27T16:10:44.001Z,59.52
2019-03-27T16:13:12.257Z,59.63
2019-03-27T16:15:40.530Z,59.98
2019-03-27T16:18:08.967Z,60.35
2019-03-27T16:20:37.368Z,60.17
2019-03-27T16:23:05.568Z,59.98
2019-03-27T16:25:33.855Z,60.25
2019-03-27T16:28:02.157Z,60.65
2019-03-27T16:30:30.448Z,60.54
2019-03-27T16:32:58.744Z,60.69
2019-03-27T16:35:27.054Z,60.40
2019-03-27T16:37:55.348Z,60.63
2019-03-27T16:40:45.240Z,60.54
2019-03-27T16:43:13.578Z,61.24
2019-03-27T16:45:41.833Z,61.67
2019-03-27T16:48:10.298Z,62.19
2019-03-27T16:50:38.795Z,62.25
2019-03-27T16:53:07.055Z,62.40
2019-03-27T16:55:35.238Z,62.55
2019-03-27T16:58:03.469Z,62.36
2019-03-27T17:00:31.707Z,63.03
2019-03-27T17:03:05.853Z,63.26
2019-03-27T17:05:35.769Z,63.36
2019-03-27T17:08:03.964Z,63.61
2019-03-27T17:10:32.280Z,63.63
2019-03-27T17:13:00.530Z,63.92
2019-03-27T17:15:28.746Z,64.09
2019-03-27T17:17:57.008Z,64.20
2019-03-27T17:20:25.130Z,64.62
2019-03-27T17:22:53.366Z,64.38
2019-03-27T17:25:21.590Z,64.41
2019-03-27T17:27:49.865Z,64.56
2019-03-27T17:30:18.993Z,64.79
2019-03-27T17:32:47.296Z,64.96
2019-03-27T17:35:15.422Z,65.28
2019-03-27T17:37:43.679Z,65.37
2019-03-27T17:40:11.989Z,65.63
2019-03-27T17:42:40.550Z,65.67
2019-03-27T17:45:08.837Z,65.74
2019-03-27T17:47:37.087Z,65.92
2019-03-27T17:50:05.678Z,65.54
2019-03-27T17:52:33.908Z,65.91
2019-03-27T17:55:02.018Z,65.48
2019-03-27T17:57:30.162Z,66.00
2019-03-27T17:59:58.342Z,66.21
2019-03-27T18:02:26.535Z,65.33
2019-03-27T18:04:54.715Z,64.59
2019-03-27T18:07:22.898Z,64.71
2019-03-27T18:09:51.047Z,65.20
2019-03-27T18:12:19.175Z,65.66
2019-03-27T18:14:47.351Z,65.06
2019-03-27T18:17:15.588Z,65.25
2019-03-27T18:19:43.803Z,65.08
2019-03-27T18:22:11.967Z,65.46
2019-03-27T18:24:40.144Z,65.79
2019-03-27T18:27:08.481Z,65.58
2019-03-27T18:29:36.771Z,66.11
2019-03-27T18:32:05.060Z,65.53
2019-03-27T18:34:33.333Z,66.00
2019-03-27T18:37:01.582Z,65.65
2019-03-27T18:39:29.875Z,64.52
2019-03-27T18:41:58.362Z,63.60
2019-03-27T18:44:27.574Z,63.56
2019-03-27T18:46:55.717Z,63.67
2019-03-27T18:49:23.913Z,62.73
2019-03-27T18:51:52.046Z,62.03
2019-03-27T18:54:23.302Z,62.40
2019-03-27T18:56:52.352Z,62.01
2019-03-27T18:59:20.554Z,61.36
2019-03-27T19:01:48.688Z,61.64
2019-03-27T19:04:17.045Z,60.85
2019-03-27T19:06:45.374Z,60.93
2019-03-27T19:09:13.547Z,61.65
2019-03-27T19:11:41.722Z,61.58
2019-03-27T19:14:09.899Z,61.12
2019-03-27T19:16:38.190Z,61.52
2019-03-27T19:19:06.302Z,61.30
2019-03-27T19:21:37.232Z,61.70
2019-03-27T19:24:14.894Z,61.73
2019-03-27T19:26:35.805Z,62.42
2019-03-27T19:29:04.200Z,62.42
2019-03-27T19:31:32.544Z,62.98
2019-03-27T19:34:00.771Z,62.88
2019-03-27T19:36:29.096Z,62.99
2019-03-27T19:38:57.348Z,63.04
2019-03-27T19:41:27.381Z,63.47
2019-03-27T19:43:56.623Z,63.65
2019-03-27T19:46:25.831Z,63.74
2019-03-27T19:48:54.274Z,64.07
2019-03-27T19:51:22.638Z,64.53
2019-03-27T19:53:50.950Z,64.77
2019-03-27T19:56:19.176Z,65.04
2019-03-27T19:58:47.397Z,65.23
2019-03-27T20:01:16.729Z,65.43
2019-03-27T20:03:44.928Z,65.81
2019-03-27T20:06:14.039Z,65.59
2019-03-27T20:08:42.528Z,65.92
2019-03-27T20:11:10.845Z,65.69
2019-03-27T20:13:42.000Z,65.49
2019-03-27T20:16:10.396Z,66.17
2019-03-27T20:18:38.616Z,66.38
2019-03-27T20:21:06.936Z,66.63
2019-03-27T20:23:35.404Z,66.74
2019-03-27T20:26:03.823Z,66.86
2019-03-27T20:28:32.547Z,67.10
2019-03-27T20:31:01.174Z,67.28
2019-03-27T20:33:29.586Z,67.38
2019-03-27T20:35:59.879Z,67.56
2019-03-27T20:38:28.191Z,67.82
2019-03-27T20:40:56.531Z,68.19
2019-03-27T20:43:24.932Z,68.50
2019-03-27T20:45:53.437Z,69.27
2019-03-27T20:48:21.801Z,69.67
2019-03-27T20:50:50.445Z,69.97
2019-03-27T20:53:18.846Z,70.20
2019-03-27T20:55:47.326Z,70.06
2019-03-27T20:58:15.405Z,70.37
2019-03-27T21:00:43.601Z,70.86
2019-03-27T21:03:11.759Z,71.03
2019-03-27T21:05:39.962Z,71.21
2019-03-27T21:08:08.125Z,71.34
2019-03-27T21:10:36.327Z,71.29
2019-03-27T21:13:04.475Z,71.81
2019-03-27T21:15:32.638Z,71.87
2019-03-27T21:18:00.746Z,71.86
2019-03-27T21:20:28.940Z,72.19
2019-03-27T21:22:57.139Z,72.48
2019-03-27T21:25:25.269Z,72.70
2019-03-27T21:27:53.622Z,72.66
2019-03-27T21:30:22.263Z,72.58
2019-03-27T21:32:50.977Z,72.82
2019-03-27T21:35:19.632Z,73.60
2019-03-27T21:37:48.211Z,73.98
2019-03-27T21:40:17.053Z,74.24
2019-03-27T21:42:45.595Z,74.30
2019-03-27T21:45:14.052Z,74.23
2019-03-27T21:47:42.325Z,74.15
2019-03-27T21:50:10.657Z,74.29
2019-03-27T21:52:38.881Z,74.80
2019-03-27T21:55:21.482Z,74.81
2019-03-27T21:57:37.655Z,74.87
2019-03-27T22:00:07.653Z,74.95
2019-03-27T22:02:35.819Z,75.29
2019-03-27T22:05:04.561Z,75.79
2019-03-27T22:07:32.836Z,75.54
2019-03-27T22:10:01.237Z,75.52
2019-03-27T22:12:29.531Z,75.95
2019-03-27T22:14:57.927Z,76.03
2019-03-27T22:17:26.180Z,75.88
2019-03-27T22:19:54.570Z,76.53
2019-03-27T22:22:23.053Z,76.77
2019-03-27T22:24:53.179Z,76.97
2019-03-27T22:27:21.618Z,77.04
2019-03-27T22:29:50.224Z,76.99
2019-03-27T22:32:18.792Z,76.97
2019-03-27T22:34:47.422Z,77.07
2019-03-27T22:37:16.009Z,77.34
2019-03-27T22:39:44.564Z,77.47
2019-03-27T22:42:13.545Z,77.72
2019-03-27T22:44:41.902Z,77.73
2019-03-27T22:47:11.251Z,77.79
2019-03-27T22:49:39.690Z,77.99
2019-03-27T22:52:11.065Z,78.30
2019-03-27T22:54:39.552Z,78.35
2019-03-27T22:57:07.958Z,78.43
2019-03-27T22:59:36.272Z,78.60
2019-03-27T23:02:04.721Z,78.92
2019-03-27T23:04:33.238Z,78.88
2019-03-27T23:07:01.651Z,79.12
2019-03-27T23:09:30.097Z,79.32
2019-03-27T23:11:58.434Z,79.27
2019-03-27T23:14:26.608Z,79.07
2019-03-27T23:16:54.798Z,79.02
2019-03-27T23:19:22.901Z,79.06
2019-03-27T23:21:51.132Z,79.09
2019-03-27T23:24:19.293Z,79.14
2019-03-27T23:26:47.545Z,79.30
2019-03-27T23:29:15.716Z,79.53
2019-03-27T23:31:43.953Z,79.55
2019-03-27T23:34:13.345Z,79.59
2019-03-27T23:36:42.333Z,79.57
2019-03-27T23:39:10.778Z,79.61
2019-03-27T23:41:44.492Z,79.61
2019-03-27T23:44:12.909Z,79.52
2019-03-27T23:46:42.431Z,79.75
2019-03-27T23:49:10.970Z,79.90
2019-03-27T23:51:39.328Z,80.09
2019-03-27T23:54:07.932Z,79.90
2019-03-27T23:56:36.373Z,80.14
2019-03-27T23:59:05.090Z,80.17
